createdAt,value
2018-09-23T00:01:36.900Z,62.90
2018-09-23T00:04:04.124Z,62.90
2018-09-23T00:06:31.368Z,63.50
2018-09-23T00:08:58.533Z,63.20
2018-09-23T00:11:25.678Z,63.20
2018-09-23T00:13:52.905Z,63.20
2018-09-23T00:16:20.133Z,63.70
2018-09-23T00:18:47.357Z,64.10
2018-09-23T00:21:14.540Z,64.10
2018-09-23T00:23:41.744Z,64.00
2018-09-23T00:26:08.881Z,64.20
2018-09-23T00:28:36.029Z,64.30
2018-09-23T00:31:03.293Z,64.10
2018-09-23T00:33:30.473Z,63.80
2018-09-23T00:35:57.753Z,64.50
2018-09-23T00:38:24.933Z,64.60
2018-09-23T00:40:52.100Z,63.80
2018-09-23T00:43:19.276Z,64.00
2018-09-23T00:45:46.466Z,64.30
2018-09-23T00:48:13.653Z,64.60
2018-09-23T00:50:40.884Z,64.40
2018-09-23T00:53:08.074Z,64.30
2018-09-23T00:55:35.282Z,64.40
2018-09-23T00:58:02.497Z,64.40
2018-09-23T01:00:29.750Z,64.10
2018-09-23T01:02:57.000Z,64.40
2018-09-23T01:05:24.261Z,64.90
2018-09-23T01:07:51.569Z,64.20
2018-09-23T01:10:18.766Z,64.70
2018-09-23T01:12:45.992Z,64.50
2018-09-23T01:15:13.230Z,64.40
2018-09-23T01:17:40.428Z,64.70
2018-09-23T01:20:07.672Z,64.50
2018-09-23T01:22:34.864Z,64.40
2018-09-23T01:25:02.090Z,64.30
2018-09-23T01:27:29.349Z,64.90
2018-09-23T01:29:56.728Z,64.60
2018-09-23T01:32:23.908Z,64.90
2018-09-23T01:34:51.045Z,64.80
2018-09-23T01:37:18.296Z,64.90
2018-09-23T01:39:45.433Z,64.90
2018-09-23T01:42:13.353Z,64.20
2018-09-23T01:44:40.596Z,64.60
2018-09-23T01:47:07.772Z,64.70
2018-09-23T01:49:34.937Z,65.30
2018-09-23T01:52:02.148Z,65.00
2018-09-23T01:54:29.321Z,64.30
2018-09-23T01:56:56.544Z,64.60
2018-09-23T01:59:23.721Z,64.30
2018-09-23T02:01:50.908Z,64.20
2018-09-23T02:04:18.121Z,64.20
2018-09-23T02:06:45.285Z,64.50
2018-09-23T02:09:12.545Z,64.30
2018-09-23T02:11:39.720Z,65.10
2018-09-23T02:14:06.916Z,64.70
2018-09-23T02:16:34.133Z,64.80
2018-09-23T02:19:01.589Z,65.10
2018-09-23T02:21:28.832Z,64.90
2018-09-23T02:23:55.977Z,64.80
2018-09-23T02:26:23.162Z,64.90
2018-09-23T02:28:50.412Z,64.70
2018-09-23T02:31:17.561Z,64.50
2018-09-23T02:33:45.005Z,65.20
2018-09-23T02:36:12.214Z,64.70
2018-09-23T02:38:39.491Z,65.30
2018-09-23T02:41:06.677Z,65.00
2018-09-23T02:43:33.945Z,65.20
2018-09-23T02:46:01.345Z,65.00
2018-09-23T02:48:28.630Z,64.80
2018-09-23T02:50:55.876Z,65.40
2018-09-23T02:53:23.136Z,65.50
2018-09-23T02:55:50.318Z,65.40
2018-09-23T02:58:17.508Z,64.90
2018-09-23T03:00:44.801Z,65.10
2018-09-23T03:03:12.023Z,65.90
2018-09-23T03:05:39.176Z,65.10
2018-09-23T03:08:06.424Z,65.10
2018-09-23T03:10:33.604Z,65.20
2018-09-23T03:13:00.777Z,65.60
2018-09-23T03:15:28.065Z,65.80
2018-09-23T03:17:55.317Z,65.50
2018-09-23T03:20:22.533Z,65.40
2018-09-23T03:22:49.757Z,65.40
2018-09-23T03:25:16.925Z,65.50
2018-09-23T03:27:44.187Z,65.70
2018-09-23T03:30:11.378Z,65.70
2018-09-23T03:32:38.584Z,65.70
2018-09-23T03:35:05.765Z,65.70
2018-09-23T03:37:32.988Z,65.80
2018-09-23T03:40:00.215Z,66.30
2018-09-23T03:42:27.435Z,66.20
2018-09-23T03:44:54.578Z,66.10
2018-09-23T03:47:21.797Z,66.40
2018-09-23T03:49:48.985Z,66.30
2018-09-23T03:52:16.267Z,66.10
2018-09-23T03:54:43.510Z,66.00
2018-09-23T03:57:10.691Z,66.30
2018-09-23T03:59:37.942Z,66.40
2018-09-23T04:02:05.152Z,66.80
2018-09-23T04:04:32.361Z,66.40
2018-09-23T04:06:59.592Z,66.20
2018-09-23T04:09:26.752Z,66.40
2018-09-23T04:11:54.032Z,66.40
2018-09-23T04:14:21.227Z,66.90
2018-09-23T04:16:48.397Z,66.70
2018-09-23T04:19:15.617Z,66.50
2018-09-23T04:21:42.876Z,66.50
2018-09-23T04:24:10.073Z,66.60
2018-09-23T04:26:37.271Z,67.50
2018-09-23T04:29:04.524Z,66.60
2018-09-23T04:31:31.703Z,67.60
2018-09-23T04:33:58.928Z,67.20
2018-09-23T04:36:26.061Z,66.70
2018-09-23T04:38:53.313Z,66.90
2018-09-23T04:41:20.568Z,67.00
2018-09-23T04:43:47.749Z,67.30
2018-09-23T04:46:14.969Z,67.10
2018-09-23T04:48:42.151Z,67.20
2018-09-23T04:51:09.436Z,67.20
2018-09-23T04:53:36.625Z,67.60
2018-09-23T04:56:03.846Z,67.40
2018-09-23T04:58:31.168Z,67.20
2018-09-23T05:00:58.850Z,67.40
2018-09-23T05:03:26.066Z,67.40
2018-09-23T05:05:53.262Z,67.80
2018-09-23T05:08:20.492Z,68.00
2018-09-23T05:10:47.793Z,68.10
2018-09-23T05:13:15.045Z,67.60
2018-09-23T05:15:42.304Z,67.70
2018-09-23T05:18:09.508Z,67.60
2018-09-23T05:20:36.705Z,67.60
2018-09-23T05:23:03.908Z,67.70
2018-09-23T05:25:31.065Z,68.40
2018-09-23T05:27:58.293Z,68.20
2018-09-23T05:30:25.509Z,68.70
2018-09-23T05:32:52.758Z,68.30
2018-09-23T05:35:20.033Z,68.30
2018-09-23T05:37:47.181Z,68.40
2018-09-23T05:40:14.379Z,68.50
2018-09-23T05:42:41.655Z,68.70
2018-09-23T05:45:09.768Z,68.70
2018-09-23T05:47:37.029Z,68.80
2018-09-23T05:50:04.872Z,68.80
2018-09-23T05:52:32.114Z,69.30
2018-09-23T05:54:59.309Z,69.10
2018-09-23T05:57:26.484Z,69.40
2018-09-23T05:59:53.733Z,69.40
2018-09-23T06:02:20.940Z,69.40
2018-09-23T06:04:48.216Z,69.40
2018-09-23T06:07:15.444Z,69.60
2018-09-23T06:09:43.453Z,69.50
2018-09-23T06:12:10.972Z,69.40
2018-09-23T06:14:38.194Z,69.70
2018-09-23T06:17:05.426Z,69.50
2018-09-23T06:19:32.668Z,69.70
2018-09-23T06:21:59.877Z,69.40
2018-09-23T06:24:27.116Z,69.80
2018-09-23T06:26:54.312Z,69.80
2018-09-23T06:29:21.526Z,69.80
2018-09-23T06:31:48.707Z,69.60
2018-09-23T06:34:15.916Z,69.80
2018-09-23T06:36:43.100Z,69.90
2018-09-23T06:39:10.592Z,70.30
2018-09-23T06:41:37.855Z,69.90
2018-09-23T06:44:05.029Z,69.80
2018-09-23T06:46:32.235Z,70.00
2018-09-23T06:48:59.442Z,69.90
2018-09-23T06:51:26.674Z,70.20
2018-09-23T06:53:53.860Z,70.40
2018-09-23T06:56:21.128Z,70.00
2018-09-23T06:58:48.351Z,70.20
2018-09-23T07:01:15.601Z,70.20
2018-09-23T07:03:42.774Z,70.60
2018-09-23T07:06:09.948Z,70.40
2018-09-23T07:08:37.192Z,70.30
2018-09-23T07:11:04.384Z,70.30
2018-09-23T07:13:31.608Z,70.50
2018-09-23T07:15:58.805Z,70.50
2018-09-23T07:18:26.033Z,70.40
2018-09-23T07:20:53.529Z,70.40
2018-09-23T07:23:20.771Z,70.70
2018-09-23T07:25:47.985Z,71.20
2018-09-23T07:28:15.188Z,71.20
2018-09-23T07:30:42.439Z,71.10
2018-09-23T07:33:09.728Z,71.40
2018-09-23T07:35:36.877Z,71.10
2018-09-23T07:38:04.097Z,71.00
2018-09-23T07:40:31.328Z,71.00
2018-09-23T07:42:58.605Z,71.10
2018-09-23T07:45:25.861Z,71.50
2018-09-23T07:47:53.093Z,71.70
2018-09-23T07:50:20.279Z,71.60
2018-09-23T07:52:47.527Z,72.30
2018-09-23T07:55:14.753Z,71.30
2018-09-23T07:57:42.017Z,71.50
2018-09-23T08:00:09.249Z,71.90
2018-09-23T08:02:36.514Z,71.80
2018-09-23T08:05:03.796Z,72.10
2018-09-23T08:07:30.993Z,72.30
2018-09-23T08:09:58.205Z,73.10
2018-09-23T08:12:25.406Z,72.80
2018-09-23T08:14:53.004Z,72.80
2018-09-23T08:17:19.752Z,73.00
2018-09-23T08:19:47.334Z,72.90
2018-09-23T08:22:14.289Z,72.80
2018-09-23T08:24:41.500Z,72.30
2018-09-23T08:27:08.676Z,72.60
2018-09-23T08:29:35.837Z,72.80
2018-09-23T08:32:03.093Z,73.10
2018-09-23T08:34:30.311Z,73.20
2018-09-23T08:36:57.524Z,73.20
2018-09-23T08:39:24.716Z,73.20
2018-09-23T08:41:51.966Z,73.10
2018-09-23T08:44:19.188Z,72.90
2018-09-23T08:46:46.400Z,73.30
2018-09-23T08:49:13.649Z,72.70
2018-09-23T08:51:40.937Z,73.10
2018-09-23T08:54:08.117Z,73.10
2018-09-23T08:56:35.303Z,73.70
2018-09-23T08:59:02.441Z,73.60
2018-09-23T09:01:29.601Z,73.90
2018-09-23T09:03:56.767Z,73.90
2018-09-23T09:06:23.977Z,74.10
2018-09-23T09:08:51.165Z,74.40
2018-09-23T09:11:18.403Z,74.30
2018-09-23T09:13:45.568Z,74.50
2018-09-23T09:16:12.792Z,74.60
2018-09-23T09:18:40.166Z,74.70
2018-09-23T09:21:07.268Z,75.20
2018-09-23T09:23:34.539Z,75.70
2018-09-23T09:26:01.829Z,75.70
2018-09-23T09:28:29.009Z,75.80
2018-09-23T09:30:56.278Z,75.90
2018-09-23T09:33:23.529Z,75.80
2018-09-23T09:35:50.681Z,76.00
2018-09-23T09:38:17.913Z,75.80
2018-09-23T09:40:45.201Z,76.10
2018-09-23T09:43:12.441Z,76.10
2018-09-23T09:45:39.845Z,76.00
2018-09-23T09:48:07.034Z,76.30
2018-09-23T09:50:34.278Z,76.50
2018-09-23T09:53:01.516Z,76.50
2018-09-23T09:55:28.802Z,76.80
2018-09-23T09:57:55.961Z,77.00
2018-09-23T10:00:28.919Z,77.10
2018-09-23T10:02:56.140Z,77.20
2018-09-23T10:05:23.332Z,77.70
2018-09-23T10:07:50.737Z,77.80
2018-09-23T10:10:18.236Z,77.90
2018-09-23T10:12:45.448Z,78.30
2018-09-23T10:15:12.860Z,78.30
2018-09-23T10:17:40.128Z,78.70
2018-09-23T10:20:07.385Z,78.90
2018-09-23T10:22:34.634Z,79.30
2018-09-23T10:25:01.757Z,79.70
2018-09-23T10:27:29.008Z,80.20
2018-09-23T10:29:56.200Z,80.10
2018-09-23T10:32:24.158Z,80.30
2018-09-23T10:34:51.686Z,80.60
2018-09-23T10:37:18.869Z,80.70
2018-09-23T10:39:46.092Z,80.80
2018-09-23T10:42:13.295Z,80.60
2018-09-23T10:44:40.499Z,81.40
2018-09-23T10:47:07.757Z,81.50
2018-09-23T10:49:34.991Z,81.80
2018-09-23T10:52:02.250Z,81.90
2018-09-23T10:54:29.533Z,82.40
2018-09-23T10:56:56.780Z,82.30
2018-09-23T10:59:24.072Z,82.70
2018-09-23T11:01:51.232Z,83.20
2018-09-23T11:04:18.451Z,83.60
2018-09-23T11:06:45.737Z,83.50
2018-09-23T11:09:13.040Z,83.80
2018-09-23T11:11:40.241Z,83.70
2018-09-23T11:14:07.500Z,84.00
2018-09-23T11:16:34.769Z,84.20
2018-09-23T11:19:01.990Z,84.20
2018-09-23T11:21:29.149Z,84.60
2018-09-23T11:23:56.377Z,85.10
2018-09-23T11:26:23.641Z,85.40
2018-09-23T11:28:50.853Z,85.00
2018-09-23T11:31:18.158Z,85.40
2018-09-23T11:33:45.381Z,85.50
2018-09-23T11:36:12.657Z,85.90
2018-09-23T11:38:39.912Z,85.90
2018-09-23T11:41:07.137Z,85.70
2018-09-23T11:43:34.361Z,86.10
2018-09-23T11:46:01.521Z,86.20
2018-09-23T11:48:28.742Z,86.30
2018-09-23T11:50:55.992Z,86.50
2018-09-23T11:53:23.201Z,86.60
2018-09-23T11:55:50.425Z,87.50
2018-09-23T11:58:17.633Z,87.80
2018-09-23T12:00:44.813Z,88.00
2018-09-23T12:03:12.029Z,88.20
2018-09-23T12:05:39.277Z,88.00
2018-09-23T12:08:06.540Z,88.30
2018-09-23T12:10:33.805Z,88.10
2018-09-23T12:13:01.056Z,87.60
2018-09-23T12:15:28.350Z,87.40
2018-09-23T12:17:55.512Z,88.10
2018-09-23T12:20:22.817Z,88.30
2018-09-23T12:22:50.091Z,89.30
2018-09-23T12:25:17.331Z,89.20
2018-09-23T12:27:44.603Z,89.00
2018-09-23T12:30:11.780Z,89.80
2018-09-23T12:32:38.960Z,89.60
2018-09-23T12:35:06.104Z,90.70
2018-09-23T12:37:33.407Z,90.60
2018-09-23T12:40:00.627Z,90.90
2018-09-23T12:42:27.945Z,91.20
2018-09-23T12:44:55.240Z,91.20
2018-09-23T12:47:22.412Z,91.30
2018-09-23T12:49:49.601Z,91.40
2018-09-23T12:52:16.824Z,91.60
2018-09-23T12:54:44.077Z,91.70
2018-09-23T12:57:11.369Z,91.60
2018-09-23T12:59:38.675Z,91.50
2018-09-23T13:02:05.962Z,91.60
2018-09-23T13:04:33.153Z,91.60
2018-09-23T13:07:00.533Z,91.70
2018-09-23T13:09:27.744Z,91.80
2018-09-23T13:11:55.049Z,92.10
2018-09-23T13:14:22.292Z,92.10
2018-09-23T13:16:49.510Z,92.20
2018-09-23T13:19:16.893Z,91.80
2018-09-23T13:21:44.136Z,92.00
2018-09-23T13:24:11.441Z,92.20
2018-09-23T13:26:38.633Z,92.30
2018-09-23T13:29:05.903Z,92.50
2018-09-23T13:31:33.016Z,92.80
2018-09-23T13:34:00.279Z,92.80
2018-09-23T13:36:27.536Z,92.90
2018-09-23T13:38:54.659Z,92.70
2018-09-23T13:41:21.846Z,92.80
2018-09-23T13:43:49.089Z,92.70
2018-09-23T13:46:16.321Z,92.80
2018-09-23T13:48:43.484Z,92.90
2018-09-23T13:51:10.833Z,93.00
2018-09-23T13:53:38.060Z,92.90
2018-09-23T13:56:05.244Z,92.90
2018-09-23T13:58:32.485Z,92.70
2018-09-23T14:00:59.832Z,93.10
2018-09-23T14:03:27.029Z,92.90
2018-09-23T14:05:54.214Z,93.00
2018-09-23T14:08:21.372Z,93.30
2018-09-23T14:10:48.617Z,93.20
2018-09-23T14:13:15.839Z,93.00
2018-09-23T14:15:43.013Z,93.10
2018-09-23T14:18:10.177Z,93.20
2018-09-23T14:20:37.521Z,94.60
2018-09-23T14:23:04.749Z,95.60
2018-09-23T14:25:31.916Z,95.90
2018-09-23T14:27:59.133Z,96.20
2018-09-23T14:30:26.328Z,96.10
2018-09-23T14:32:53.555Z,95.00
2018-09-23T14:35:20.830Z,95.10
2018-09-23T14:37:47.945Z,95.30
2018-09-23T14:40:15.168Z,95.00
2018-09-23T14:42:42.369Z,94.10
2018-09-23T14:45:09.614Z,94.20
2018-09-23T14:47:36.843Z,94.00
2018-09-23T14:50:04.681Z,94.00
2018-09-23T14:52:31.856Z,93.80
2018-09-23T14:54:59.134Z,93.30
2018-09-23T14:57:26.273Z,93.70
2018-09-23T14:59:54.367Z,93.40
2018-09-23T15:02:20.745Z,94.00
2018-09-23T15:04:47.953Z,93.50
2018-09-23T15:07:15.205Z,93.70
2018-09-23T15:09:42.400Z,93.90
2018-09-23T15:12:09.597Z,93.50
2018-09-23T15:14:36.782Z,93.10
2018-09-23T15:17:03.999Z,93.30
2018-09-23T15:19:31.234Z,93.50
2018-09-23T15:21:58.526Z,92.90
2018-09-23T15:24:25.608Z,92.80
2018-09-23T15:26:52.788Z,92.80
2018-09-23T15:29:19.969Z,93.30
2018-09-23T15:31:47.198Z,93.00
2018-09-23T15:34:14.425Z,92.90
2018-09-23T15:36:41.619Z,93.00
2018-09-23T15:39:08.767Z,92.60
2018-09-23T15:41:36.401Z,92.00
2018-09-23T15:44:03.600Z,92.20
2018-09-23T15:46:30.839Z,92.00
2018-09-23T15:48:58.006Z,92.00
2018-09-23T15:51:25.232Z,91.80
2018-09-23T15:53:52.421Z,91.60
2018-09-23T15:56:20.019Z,91.50
2018-09-23T15:58:47.220Z,91.80
2018-09-23T16:01:14.440Z,91.60
2018-09-23T16:03:41.806Z,91.40
2018-09-23T16:06:09.184Z,91.80
2018-09-23T16:08:36.527Z,91.60
2018-09-23T16:11:03.665Z,91.20
2018-09-23T16:13:30.842Z,91.30
2018-09-23T16:15:58.052Z,91.10
2018-09-23T16:18:25.312Z,91.10
2018-09-23T16:20:52.426Z,90.50
2018-09-23T16:23:19.627Z,90.50
2018-09-23T16:25:46.844Z,90.30
2018-09-23T16:28:14.031Z,90.10
2018-09-23T16:30:41.279Z,90.00
2018-09-23T16:33:08.492Z,90.20
2018-09-23T16:35:35.753Z,90.20
2018-09-23T16:38:02.969Z,89.70
2018-09-23T16:40:30.189Z,89.50
2018-09-23T16:42:57.380Z,89.80
2018-09-23T16:45:24.657Z,89.80
2018-09-23T16:47:51.949Z,88.80
2018-09-23T16:50:19.045Z,88.30
2018-09-23T16:52:46.284Z,88.40
2018-09-23T16:55:13.533Z,88.90
2018-09-23T16:57:40.815Z,89.10
2018-09-23T17:00:07.985Z,88.00
2018-09-23T17:02:35.157Z,88.70
2018-09-23T17:05:02.365Z,88.00
2018-09-23T17:07:29.665Z,88.30
2018-09-23T17:09:57.124Z,87.10
2018-09-23T17:12:24.461Z,86.30
2018-09-23T17:14:51.604Z,86.80
2018-09-23T17:17:18.752Z,85.40
2018-09-23T17:19:45.985Z,86.90
2018-09-23T17:22:13.206Z,86.10
2018-09-23T17:24:40.405Z,86.40
2018-09-23T17:27:07.699Z,85.90
2018-09-23T17:29:35.014Z,85.20
2018-09-23T17:32:02.181Z,85.40
2018-09-23T17:34:29.404Z,85.00
2018-09-23T17:36:56.597Z,84.10
2018-09-23T17:39:23.777Z,83.40
2018-09-23T17:41:51.021Z,83.40
2018-09-23T17:44:18.265Z,84.40
2018-09-23T17:46:45.497Z,83.40
2018-09-23T17:49:12.705Z,82.20
2018-09-23T17:51:39.912Z,83.00
2018-09-23T17:54:07.080Z,83.00
2018-09-23T17:56:34.336Z,82.50
2018-09-23T17:59:01.570Z,83.30
2018-09-23T18:01:28.780Z,83.10
2018-09-23T18:03:55.957Z,82.50
2018-09-23T18:06:23.360Z,81.70
2018-09-23T18:08:50.608Z,80.60
2018-09-23T18:11:17.805Z,81.60
2018-09-23T18:13:44.967Z,81.70
2018-09-23T18:16:12.093Z,82.50
2018-09-23T18:18:39.332Z,81.60
2018-09-23T18:21:06.721Z,81.40
2018-09-23T18:23:33.921Z,81.40
2018-09-23T18:26:01.090Z,80.30
2018-09-23T18:28:28.292Z,81.60
2018-09-23T18:30:55.496Z,81.10
2018-09-23T18:33:22.704Z,81.00
2018-09-23T18:35:49.857Z,81.70
2018-09-23T18:38:17.141Z,81.40
2018-09-23T18:40:44.488Z,80.90
2018-09-23T18:43:11.665Z,80.00
2018-09-23T18:45:38.823Z,80.20
2018-09-23T18:48:06.115Z,81.50
2018-09-23T18:50:33.345Z,80.80
2018-09-23T18:53:06.196Z,81.40
2018-09-23T18:55:39.304Z,80.40
2018-09-23T18:58:06.710Z,79.90
2018-09-23T19:00:33.895Z,79.50
2018-09-23T19:03:01.169Z,78.50
2018-09-23T19:05:28.349Z,79.00
2018-09-23T19:07:55.508Z,78.80
2018-09-23T19:10:22.757Z,77.60
2018-09-23T19:12:55.456Z,78.50
2018-09-23T19:15:22.682Z,78.20
2018-09-23T19:17:49.865Z,77.20
2018-09-23T19:20:17.036Z,78.40
2018-09-23T19:22:49.821Z,77.40
2018-09-23T19:25:17.016Z,77.80
2018-09-23T19:27:44.173Z,77.30
2018-09-23T19:30:11.441Z,77.30
2018-09-23T19:32:38.684Z,76.90
2018-09-23T19:35:05.848Z,75.60
2018-09-23T19:37:33.074Z,76.90
2018-09-23T19:40:00.704Z,76.90
2018-09-23T19:42:27.940Z,77.30
2018-09-23T19:44:55.215Z,77.10
2018-09-23T19:47:22.452Z,77.00
2018-09-23T19:49:49.576Z,74.80
2018-09-23T19:52:16.829Z,76.30
2018-09-23T19:54:44.028Z,76.20
2018-09-23T19:57:11.204Z,75.60
2018-09-23T19:59:38.379Z,75.90
2018-09-23T20:02:05.567Z,75.70
2018-09-23T20:04:32.756Z,76.20
2018-09-23T20:07:00.033Z,76.00
2018-09-23T20:09:27.192Z,75.60
2018-09-23T20:11:54.389Z,75.90
2018-09-23T20:14:21.549Z,75.10
2018-09-23T20:16:48.724Z,75.30
2018-09-23T20:19:15.936Z,75.10
2018-09-23T20:21:43.096Z,74.90
2018-09-23T20:24:10.267Z,74.00
2018-09-23T20:26:37.461Z,74.00
2018-09-23T20:29:05.037Z,73.50
2018-09-23T20:31:32.258Z,74.40
2018-09-23T20:33:59.488Z,73.30
2018-09-23T20:36:26.724Z,74.30
2018-09-23T20:38:53.954Z,73.90
2018-09-23T20:41:21.061Z,73.50
2018-09-23T20:43:48.311Z,74.50
2018-09-23T20:46:15.509Z,74.60
2018-09-23T20:48:42.681Z,71.80
2018-09-23T20:51:09.870Z,73.00
2018-09-23T20:53:37.166Z,73.00
2018-09-23T20:56:04.315Z,73.00
2018-09-23T20:58:31.516Z,74.90
2018-09-23T21:00:58.791Z,73.70
2018-09-23T21:03:26.028Z,72.80
2018-09-23T21:05:53.240Z,73.00
2018-09-23T21:08:20.440Z,73.10
2018-09-23T21:10:47.680Z,73.00
2018-09-23T21:13:14.911Z,73.00
2018-09-23T21:15:42.144Z,73.00
2018-09-23T21:18:09.312Z,72.70
2018-09-23T21:20:36.562Z,73.50
2018-09-23T21:23:03.809Z,72.10
2018-09-23T21:25:31.027Z,72.50
2018-09-23T21:27:58.205Z,72.60
2018-09-23T21:30:25.429Z,73.60
2018-09-23T21:32:52.695Z,72.00
2018-09-23T21:35:19.932Z,73.20
2018-09-23T21:37:47.109Z,72.70
2018-09-23T21:40:14.305Z,72.10
2018-09-23T21:42:41.501Z,72.50
2018-09-23T21:45:08.710Z,71.10
2018-09-23T21:47:35.944Z,71.30
2018-09-23T21:50:03.184Z,72.60
2018-09-23T21:52:30.420Z,71.10
2018-09-23T21:54:57.639Z,71.70
2018-09-23T21:57:24.752Z,72.20
2018-09-23T21:59:51.935Z,71.10
2018-09-23T22:02:19.187Z,72.20
2018-09-23T22:04:46.425Z,73.00
2018-09-23T22:07:13.659Z,72.60
2018-09-23T22:09:40.911Z,71.90
2018-09-23T22:12:08.128Z,73.10
2018-09-23T22:14:35.553Z,72.80
2018-09-23T22:17:02.840Z,73.30
2018-09-23T22:19:30.132Z,71.80
2018-09-23T22:21:57.340Z,71.80
2018-09-23T22:24:24.511Z,72.80
2018-09-23T22:26:51.715Z,72.50
2018-09-23T22:29:18.880Z,70.50
2018-09-23T22:31:46.085Z,72.60
2018-09-23T22:34:13.260Z,72.40
2018-09-23T22:36:40.532Z,72.70
2018-09-23T22:39:07.864Z,72.40
2018-09-23T22:41:35.148Z,72.00
2018-09-23T22:44:02.420Z,73.00
2018-09-23T22:46:29.641Z,72.20
2018-09-23T22:48:56.876Z,72.10
2018-09-23T22:51:24.120Z,72.10
2018-09-23T22:53:51.304Z,72.50
2018-09-23T22:56:18.476Z,72.70
2018-09-23T22:58:45.644Z,73.10
2018-09-23T23:01:12.887Z,72.60
2018-09-23T23:03:40.120Z,72.40
2018-09-23T23:06:07.312Z,73.20
2018-09-23T23:08:34.624Z,72.50
2018-09-23T23:11:01.861Z,71.80
2018-09-23T23:13:29.060Z,72.30
2018-09-23T23:15:56.477Z,72.00
2018-09-23T23:18:23.687Z,72.20
2018-09-23T23:20:50.918Z,71.80
2018-09-23T23:23:18.169Z,71.80
2018-09-23T23:25:45.376Z,72.90
2018-09-23T23:28:12.621Z,72.40
2018-09-23T23:30:39.857Z,72.50
2018-09-23T23:33:07.091Z,72.30
2018-09-23T23:35:34.353Z,70.70
2018-09-23T23:38:01.631Z,70.70
2018-09-23T23:40:28.842Z,71.60
2018-09-23T23:42:56.037Z,71.70
2018-09-23T23:45:23.279Z,71.60
2018-09-23T23:47:50.540Z,72.60
2018-09-23T23:50:17.714Z,72.20
2018-09-23T23:52:44.930Z,72.00
2018-09-23T23:55:12.143Z,71.50
2018-09-23T23:57:39.273Z,71.60
